createdAt,value
2019-05-23T00:00:25.731Z,22.14
2019-05-23T00:02:52.065Z,22.12
2019-05-23T00:05:18.434Z,22.13
2019-05-23T00:07:44.775Z,22.17
2019-05-23T00:10:11.250Z,22.10
2019-05-23T00:12:37.649Z,22.06
2019-05-23T00:15:04.010Z,22.11
2019-05-23T00:17:30.357Z,22.08
2019-05-23T00:19:56.801Z,22.10
2019-05-23T00:22:23.129Z,22.08
2019-05-23T00:24:49.454Z,22.07
2019-05-23T00:27:15.846Z,22.06
2019-05-23T00:29:42.193Z,22.07
2019-05-23T00:32:08.651Z,22.01
2019-05-23T00:34:35.044Z,22.02
2019-05-23T00:37:01.430Z,21.99
2019-05-23T00:39:27.774Z,21.97
2019-05-23T00:41:54.104Z,21.98
2019-05-23T00:44:20.450Z,21.98
2019-05-23T00:46:46.848Z,22.02
2019-05-23T00:49:13.186Z,21.98
2019-05-23T00:51:39.571Z,21.92
2019-05-23T00:54:05.879Z,21.93
2019-05-23T00:56:32.216Z,21.97
2019-05-23T00:58:58.555Z,21.91
2019-05-23T01:01:24.930Z,21.87
2019-05-23T01:03:51.217Z,21.88
2019-05-23T01:06:17.705Z,21.90
2019-05-23T01:08:44.028Z,21.89
2019-05-23T01:11:10.382Z,21.85
2019-05-23T01:13:36.722Z,21.84
2019-05-23T01:16:03.173Z,21.85
2019-05-23T01:18:29.493Z,21.83
2019-05-23T01:20:55.876Z,21.85
2019-05-23T01:23:22.229Z,21.81
2019-05-23T01:25:48.623Z,21.80
2019-05-23T01:28:14.981Z,21.78
2019-05-23T01:30:41.392Z,21.79
2019-05-23T01:33:07.687Z,21.78
2019-05-23T01:35:34.024Z,21.73
2019-05-23T01:38:04.004Z,21.77
2019-05-23T01:40:26.806Z,21.70
2019-05-23T01:42:53.131Z,21.72
2019-05-23T01:45:19.515Z,21.70
2019-05-23T01:47:45.810Z,21.67
2019-05-23T01:50:12.146Z,21.70
2019-05-23T01:52:38.534Z,21.65
2019-05-23T01:55:04.896Z,21.62
2019-05-23T01:57:31.222Z,21.64
2019-05-23T02:00:08.953Z,21.60
2019-05-23T02:02:23.986Z,21.61
2019-05-23T02:04:50.356Z,21.55
2019-05-23T02:07:16.780Z,21.59
2019-05-23T02:09:43.120Z,21.52
2019-05-23T02:12:09.493Z,21.53
2019-05-23T02:14:35.853Z,21.55
2019-05-23T02:17:02.421Z,21.47
2019-05-23T02:19:28.758Z,21.52
2019-05-23T02:21:55.051Z,21.50
2019-05-23T02:24:21.485Z,21.49
2019-05-23T02:26:47.762Z,21.45
2019-05-23T02:29:14.277Z,21.44
2019-05-23T02:31:40.619Z,21.40
2019-05-23T02:34:06.985Z,21.40
2019-05-23T02:36:33.378Z,21.46
2019-05-23T02:38:59.797Z,21.46
2019-05-23T02:41:26.169Z,21.40
2019-05-23T02:43:52.456Z,21.37
2019-05-23T02:46:18.886Z,21.36
2019-05-23T02:48:45.229Z,21.38
2019-05-23T02:51:11.588Z,21.31
2019-05-23T02:53:38.012Z,21.32
2019-05-23T02:56:04.345Z,21.31
2019-05-23T02:58:33.241Z,21.32
2019-05-23T03:00:59.684Z,21.33
2019-05-23T03:03:25.995Z,21.30
2019-05-23T03:05:52.307Z,21.29
2019-05-23T03:08:18.655Z,21.27
2019-05-23T03:10:45.029Z,21.29
2019-05-23T03:13:11.361Z,21.28
2019-05-23T03:15:37.708Z,21.25
2019-05-23T03:18:04.102Z,21.32
2019-05-23T03:20:30.412Z,21.36
2019-05-23T03:22:56.765Z,21.44
2019-05-23T03:25:23.108Z,21.51
2019-05-23T03:27:49.448Z,21.60
2019-05-23T03:30:15.870Z,21.66
2019-05-23T03:32:42.258Z,21.72
2019-05-23T03:35:08.613Z,21.77
2019-05-23T03:37:34.922Z,21.83
2019-05-23T03:40:01.291Z,21.89
2019-05-23T03:42:27.840Z,21.95
2019-05-23T03:44:54.182Z,21.99
2019-05-23T03:47:20.507Z,22.06
2019-05-23T03:49:46.835Z,22.11
2019-05-23T03:52:13.166Z,22.18
2019-05-23T03:54:39.620Z,22.24
2019-05-23T03:57:05.959Z,22.29
2019-05-23T03:59:32.333Z,22.27
2019-05-23T04:01:59.281Z,22.37
2019-05-23T04:04:25.657Z,22.38
2019-05-23T04:06:52.027Z,22.51
2019-05-23T04:09:18.393Z,22.56
2019-05-23T04:11:44.732Z,22.56
2019-05-23T04:14:11.091Z,22.61
2019-05-23T04:16:37.489Z,22.57
2019-05-23T04:19:03.766Z,22.66
2019-05-23T04:21:30.188Z,22.71
2019-05-23T04:23:56.487Z,22.91
2019-05-23T04:26:22.814Z,22.80
2019-05-23T04:28:49.208Z,22.98
2019-05-23T04:31:15.587Z,22.95
2019-05-23T04:33:41.903Z,23.09
2019-05-23T04:36:08.239Z,23.05
2019-05-23T04:38:36.427Z,23.26
2019-05-23T04:41:00.907Z,22.93
2019-05-23T04:43:27.232Z,23.15
2019-05-23T04:45:53.566Z,22.96
2019-05-23T04:48:19.892Z,23.15
2019-05-23T04:50:46.241Z,22.94
2019-05-23T04:53:12.618Z,23.11
2019-05-23T04:55:38.968Z,23.15
2019-05-23T04:58:05.359Z,23.06
2019-05-23T05:00:31.641Z,23.06
2019-05-23T05:02:57.972Z,23.08
2019-05-23T05:05:24.521Z,23.24
2019-05-23T05:07:50.897Z,23.21
2019-05-23T05:10:17.222Z,23.13
2019-05-23T05:12:43.587Z,23.16
2019-05-23T05:15:09.971Z,23.21
2019-05-23T05:17:36.310Z,23.24
2019-05-23T05:20:02.824Z,23.31
2019-05-23T05:22:29.177Z,23.42
2019-05-23T05:24:55.543Z,23.44
2019-05-23T05:27:21.897Z,23.38
2019-05-23T05:29:48.254Z,23.53
2019-05-23T05:32:14.681Z,23.61
2019-05-23T05:34:40.958Z,23.59
2019-05-23T05:37:07.455Z,23.71
2019-05-23T05:39:33.703Z,23.74
2019-05-23T05:42:00.057Z,23.89
2019-05-23T05:44:26.382Z,23.87
2019-05-23T05:46:52.773Z,23.90
2019-05-23T05:49:19.131Z,23.86
2019-05-23T05:51:45.503Z,24.12
2019-05-23T05:54:11.869Z,24.15
2019-05-23T05:56:38.198Z,24.18
2019-05-23T05:59:04.543Z,24.13
2019-05-23T06:01:34.015Z,24.25
2019-05-23T06:03:57.315Z,24.24
2019-05-23T06:06:23.683Z,24.19
2019-05-23T06:11:16.426Z,24.30
2019-05-23T06:13:42.772Z,24.36
2019-05-23T06:16:09.168Z,24.39
2019-05-23T06:18:35.567Z,24.30
2019-05-23T06:21:01.987Z,24.39
2019-05-23T06:23:28.304Z,24.48
2019-05-23T06:25:54.706Z,24.60
2019-05-23T06:28:21.110Z,24.65
2019-05-23T06:30:47.426Z,24.49
2019-05-23T06:33:23.225Z,24.59
2019-05-23T06:35:40.160Z,24.62
2019-05-23T06:38:06.523Z,24.63
2019-05-23T06:40:32.905Z,24.66
2019-05-23T06:45:25.642Z,24.74
2019-05-23T06:47:51.997Z,24.74
2019-05-23T06:50:18.381Z,24.85
2019-05-23T06:52:44.766Z,24.86
2019-05-23T06:55:11.099Z,24.91
2019-05-23T06:57:37.527Z,24.92
2019-05-23T07:00:03.778Z,25.03
2019-05-23T07:02:32.146Z,25.05
2019-05-23T07:04:56.496Z,25.08
2019-05-23T07:07:22.937Z,25.18
2019-05-23T07:09:49.251Z,25.20
2019-05-23T07:12:15.630Z,25.25
2019-05-23T07:14:42.024Z,25.24
2019-05-23T07:19:34.746Z,25.32
2019-05-23T07:22:01.089Z,25.33
2019-05-23T07:24:27.443Z,25.35
2019-05-23T07:26:53.797Z,25.51
2019-05-23T07:29:20.127Z,25.45
2019-05-23T07:31:46.500Z,25.49
2019-05-23T07:34:12.888Z,25.53
2019-05-23T07:36:39.189Z,25.62
2019-05-23T07:39:05.533Z,25.57
2019-05-23T07:41:31.958Z,25.49
2019-05-23T07:43:58.334Z,25.49
2019-05-23T07:46:24.737Z,25.59
2019-05-23T07:48:51.088Z,25.58
2019-05-23T07:53:44.334Z,25.63
2019-05-23T07:56:10.258Z,25.65
2019-05-23T07:58:36.553Z,25.62
2019-05-23T08:01:02.968Z,25.63
2019-05-23T08:03:29.253Z,25.65
2019-05-23T08:05:55.583Z,25.67
2019-05-23T08:08:21.922Z,25.63
2019-05-23T08:10:48.256Z,25.67
2019-05-23T08:13:14.618Z,25.65
2019-05-23T08:15:40.962Z,25.63
2019-05-23T08:18:07.296Z,25.68
2019-05-23T08:20:33.626Z,25.53
2019-05-23T08:22:59.962Z,25.53
2019-05-23T08:25:26.388Z,25.48
2019-05-23T08:27:52.719Z,25.43
2019-05-23T08:30:19.136Z,25.52
2019-05-23T08:32:45.473Z,25.43
2019-05-23T08:35:16.155Z,25.38
2019-05-23T08:37:38.205Z,25.44
2019-05-23T08:40:04.562Z,25.37
2019-05-23T08:42:30.972Z,25.35
2019-05-23T08:44:57.300Z,25.34
2019-05-23T08:47:23.694Z,25.32
2019-05-23T08:49:50.042Z,25.34
2019-05-23T08:52:16.393Z,25.27
2019-05-23T08:54:42.735Z,25.20
2019-05-23T08:57:09.076Z,25.19
2019-05-23T08:59:35.465Z,25.21
2019-05-23T09:02:01.795Z,25.18
2019-05-23T09:04:28.143Z,25.17
2019-05-23T09:06:54.473Z,25.14
2019-05-23T09:09:29.812Z,25.19
2019-05-23T09:11:47.205Z,25.13
2019-05-23T09:14:13.535Z,25.13
2019-05-23T09:16:39.913Z,25.17
2019-05-23T09:19:06.252Z,25.10
2019-05-23T09:21:32.756Z,25.07
2019-05-23T09:23:59.168Z,25.05
2019-05-23T09:26:25.509Z,25.08
2019-05-23T09:28:51.848Z,25.01
2019-05-23T09:31:18.212Z,24.97
2019-05-23T09:33:44.558Z,24.98
2019-05-23T09:36:10.975Z,25.13
2019-05-23T09:38:37.364Z,24.92
2019-05-23T09:41:03.660Z,24.92
2019-05-23T09:43:29.992Z,24.90
2019-05-23T09:45:56.343Z,24.94
2019-05-23T09:48:22.696Z,25.02
2019-05-23T09:50:49.068Z,24.90
2019-05-23T09:53:15.422Z,25.02
2019-05-23T09:55:41.827Z,25.08
2019-05-23T09:58:08.188Z,25.04
2019-05-23T10:00:34.623Z,25.00
2019-05-23T10:03:00.997Z,24.98
2019-05-23T10:05:41.571Z,25.14
2019-05-23T10:07:53.816Z,25.28
2019-05-23T10:10:20.151Z,25.14
2019-05-23T10:12:46.511Z,25.10
2019-05-23T10:17:39.233Z,25.15
2019-05-23T10:20:05.588Z,25.14
2019-05-23T10:22:31.964Z,25.05
2019-05-23T10:24:58.415Z,24.98
2019-05-23T10:27:24.758Z,25.04
2019-05-23T10:29:51.192Z,25.15
2019-05-23T10:32:17.559Z,24.95
2019-05-23T10:34:43.905Z,24.94
2019-05-23T10:37:10.331Z,24.98
2019-05-23T10:39:36.678Z,25.07
2019-05-23T10:42:06.817Z,25.08
2019-05-23T10:44:33.207Z,24.99
2019-05-23T10:46:59.578Z,25.01
2019-05-23T10:49:25.909Z,25.00
2019-05-23T10:51:52.301Z,24.89
2019-05-23T10:54:18.686Z,24.90
2019-05-23T10:56:45.019Z,25.10
2019-05-23T10:59:11.370Z,25.06
2019-05-23T11:01:37.724Z,25.06
2019-05-23T11:04:04.091Z,24.88
2019-05-23T11:06:30.548Z,25.08
2019-05-23T11:08:56.879Z,24.94
2019-05-23T11:11:23.331Z,25.04
2019-05-23T11:13:49.651Z,25.04
2019-05-23T11:16:15.997Z,25.08
2019-05-23T11:18:42.364Z,24.98
2019-05-23T11:21:08.759Z,24.99
2019-05-23T11:26:02.594Z,24.94
2019-05-23T11:28:27.865Z,24.90
2019-05-23T11:30:54.245Z,25.01
2019-05-23T11:33:20.590Z,25.00
2019-05-23T11:35:47.077Z,25.00
2019-05-23T11:38:13.404Z,25.00
2019-05-23T11:40:39.799Z,24.94
2019-05-23T11:43:06.170Z,25.01
2019-05-23T11:45:32.562Z,24.95
2019-05-23T11:47:58.891Z,24.91
2019-05-23T11:50:25.349Z,24.99
2019-05-23T11:52:55.271Z,24.93
2019-05-23T11:55:18.208Z,25.05
2019-05-23T12:00:10.958Z,24.98
2019-05-23T12:02:37.374Z,24.89
2019-05-23T12:05:03.711Z,24.92
2019-05-23T12:07:30.133Z,24.85
2019-05-23T12:09:56.461Z,24.77
2019-05-23T12:12:22.987Z,24.77
2019-05-23T12:14:49.357Z,24.84
2019-05-23T12:17:15.686Z,24.93
2019-05-23T12:19:42.408Z,24.92
2019-05-23T12:22:08.549Z,24.77
2019-05-23T12:24:35.900Z,24.82
2019-05-23T12:27:01.525Z,24.89
2019-05-23T12:29:27.863Z,24.92
2019-05-23T12:31:54.241Z,24.98
2019-05-23T12:34:20.528Z,24.90
2019-05-23T12:36:46.872Z,25.05
2019-05-23T12:39:13.270Z,24.98
2019-05-23T12:41:39.607Z,24.84
2019-05-23T12:44:05.936Z,24.87
2019-05-23T12:46:32.273Z,24.90
2019-05-23T12:48:58.749Z,24.90
2019-05-23T12:51:25.393Z,24.90
2019-05-23T12:53:51.590Z,24.92
2019-05-23T12:56:18.084Z,24.94
2019-05-23T12:58:44.419Z,24.76
2019-05-23T13:01:10.798Z,24.97
2019-05-23T13:03:37.130Z,24.92
2019-05-23T13:06:03.713Z,24.94
2019-05-23T13:08:30.101Z,25.01
2019-05-23T13:10:56.420Z,25.06
2019-05-23T13:13:22.809Z,25.13
2019-05-23T13:15:49.153Z,25.02
2019-05-23T13:18:15.484Z,25.06
2019-05-23T13:20:41.836Z,24.95
2019-05-23T13:23:08.723Z,25.10
2019-05-23T13:25:34.581Z,24.90
2019-05-23T13:28:01.002Z,25.02
2019-05-23T13:30:27.394Z,25.07
2019-05-23T13:32:53.848Z,25.12
2019-05-23T13:35:20.104Z,25.03
2019-05-23T13:37:53.474Z,24.99
2019-05-23T13:40:12.787Z,25.08
2019-05-23T13:42:39.119Z,24.90
2019-05-23T13:45:05.491Z,25.05
2019-05-23T13:47:31.871Z,25.02
2019-05-23T13:49:58.203Z,25.03
2019-05-23T13:52:24.639Z,24.98
2019-05-23T13:54:50.971Z,25.01
2019-05-23T13:57:17.353Z,24.91
2019-05-23T13:59:43.815Z,24.97
2019-05-23T14:02:10.343Z,24.97
2019-05-23T14:04:36.780Z,24.82
2019-05-23T14:07:03.210Z,24.88
2019-05-23T14:12:19.903Z,25.00
2019-05-23T14:14:22.266Z,24.97
2019-05-23T14:16:48.627Z,24.95
2019-05-23T14:19:14.947Z,24.88
2019-05-23T14:21:41.277Z,24.93
2019-05-23T14:24:07.607Z,24.98
2019-05-23T14:26:33.953Z,24.99
2019-05-23T14:29:00.286Z,24.95
2019-05-23T14:31:26.639Z,24.92
2019-05-23T14:33:52.962Z,24.91
2019-05-23T14:36:19.342Z,24.92
2019-05-23T14:38:45.884Z,24.94
2019-05-23T14:41:12.165Z,24.93
2019-05-23T14:46:04.911Z,24.93
2019-05-23T14:48:31.212Z,24.87
2019-05-23T14:50:57.544Z,24.98
2019-05-23T14:53:23.939Z,24.89
2019-05-23T14:55:50.313Z,24.88
2019-05-23T14:58:16.775Z,24.89
2019-05-23T15:00:43.113Z,24.89
2019-05-23T15:03:09.453Z,24.86
2019-05-23T15:05:37.026Z,24.86
2019-05-23T15:08:02.209Z,24.85
2019-05-23T15:10:28.559Z,24.90
2019-05-23T15:12:54.908Z,24.86
2019-05-23T15:15:21.252Z,24.83
2019-05-23T15:20:13.930Z,24.84
2019-05-23T15:22:40.314Z,24.87
2019-05-23T15:25:06.694Z,24.84
2019-05-23T15:27:33.346Z,24.84
2019-05-23T15:29:59.387Z,24.88
2019-05-23T15:32:25.719Z,24.76
2019-05-23T15:34:52.071Z,24.79
2019-05-23T15:37:18.450Z,24.83
2019-05-23T15:39:44.779Z,24.79
2019-05-23T15:42:11.163Z,24.84
2019-05-23T15:44:37.495Z,24.87
2019-05-23T15:47:03.867Z,24.85
2019-05-23T15:49:30.208Z,24.83
2019-05-23T15:51:56.531Z,24.73
2019-05-23T15:54:22.851Z,24.79
2019-05-23T15:56:49.191Z,24.79
2019-05-23T15:59:15.578Z,24.66
2019-05-23T16:01:41.982Z,24.72
2019-05-23T16:04:08.339Z,24.70
2019-05-23T16:06:34.724Z,24.69
2019-05-23T16:09:01.040Z,24.76
2019-05-23T16:11:27.419Z,24.71
2019-05-23T16:13:53.764Z,24.66
2019-05-23T16:16:20.105Z,24.62
2019-05-23T16:18:46.627Z,24.72
2019-05-23T16:21:12.967Z,24.65
2019-05-23T16:23:39.260Z,24.60
2019-05-23T16:26:05.596Z,24.64
2019-05-23T16:28:31.931Z,24.59
2019-05-23T16:30:58.284Z,24.58
2019-05-23T16:33:24.639Z,24.62
2019-05-23T16:35:51.002Z,24.57
2019-05-23T16:38:17.359Z,24.58
2019-05-23T16:40:43.711Z,24.57
2019-05-23T16:43:10.055Z,24.53
2019-05-23T16:45:36.451Z,24.57
2019-05-23T16:48:02.754Z,24.60
2019-05-23T16:50:29.148Z,24.68
2019-05-23T16:52:55.471Z,24.59
2019-05-23T16:55:21.839Z,24.59
2019-05-23T16:57:48.216Z,24.63
2019-05-23T17:00:14.533Z,24.66
2019-05-23T17:02:40.881Z,24.61
2019-05-23T17:05:10.395Z,24.58
2019-05-23T17:07:33.773Z,24.63
2019-05-23T17:10:08.265Z,24.69
2019-05-23T17:12:26.537Z,24.69
2019-05-23T17:14:52.870Z,24.68
2019-05-23T17:17:36.496Z,24.74
2019-05-23T17:19:45.716Z,24.73
2019-05-23T17:22:12.150Z,24.70
2019-05-23T17:24:40.080Z,24.73
2019-05-23T17:27:04.751Z,24.69
2019-05-23T17:29:31.085Z,24.70
2019-05-23T17:31:57.416Z,24.70
2019-05-23T17:34:23.778Z,24.68
2019-05-23T17:36:50.150Z,24.62
2019-05-23T17:39:16.459Z,24.68
2019-05-23T17:41:42.870Z,24.66
2019-05-23T17:44:09.175Z,24.68
2019-05-23T17:46:35.541Z,24.68
2019-05-23T17:49:01.880Z,24.69
2019-05-23T17:51:28.243Z,24.66
2019-05-23T17:53:54.581Z,24.65
2019-05-23T17:56:21.063Z,24.64
2019-05-23T17:58:47.401Z,24.60
2019-05-23T18:01:13.920Z,24.58
2019-05-23T18:03:40.293Z,24.61
2019-05-23T18:06:06.642Z,24.60
2019-05-23T18:08:32.982Z,24.61
2019-05-23T18:10:59.329Z,24.59
2019-05-23T18:13:27.814Z,24.57
2019-05-23T18:15:52.020Z,24.59
2019-05-23T18:18:18.370Z,24.60
2019-05-23T18:20:44.889Z,24.57
2019-05-23T18:23:11.073Z,24.62
2019-05-23T18:25:37.442Z,24.59
2019-05-23T18:28:03.783Z,24.59
2019-05-23T18:32:56.561Z,24.55
2019-05-23T18:35:22.874Z,24.60
2019-05-23T18:37:49.244Z,24.56
2019-05-23T18:40:15.551Z,24.55
2019-05-23T18:42:41.905Z,24.58
2019-05-23T18:45:08.247Z,24.54
2019-05-23T18:47:34.642Z,24.58
2019-05-23T18:50:01.084Z,24.54
2019-05-23T18:52:27.394Z,24.56
2019-05-23T18:54:53.796Z,24.55
2019-05-23T18:57:20.129Z,24.51
2019-05-23T18:59:46.491Z,24.59
2019-05-23T19:02:12.913Z,24.56
2019-05-23T19:04:39.351Z,24.46
2019-05-23T19:07:05.729Z,24.53
2019-05-23T19:09:33.005Z,24.46
2019-05-23T19:11:58.521Z,24.55
2019-05-23T19:14:24.844Z,24.50
2019-05-23T19:19:17.587Z,24.48
2019-05-23T19:21:43.946Z,24.45
2019-05-23T19:24:10.303Z,24.46
2019-05-23T19:26:36.677Z,24.49
2019-05-23T19:29:03.105Z,24.46
2019-05-23T19:31:29.468Z,24.44
2019-05-23T19:33:55.822Z,24.45
2019-05-23T19:36:22.234Z,24.44
2019-05-23T19:38:48.592Z,24.43
2019-05-23T19:41:14.941Z,24.44
2019-05-23T19:43:41.293Z,24.41
2019-05-23T19:46:07.656Z,24.38
2019-05-23T19:48:33.987Z,24.42
2019-05-23T19:53:27.474Z,24.41
2019-05-23T19:55:53.846Z,24.36
2019-05-23T19:58:20.266Z,24.35
2019-05-23T20:00:46.561Z,24.39
2019-05-23T20:03:12.899Z,24.38
2019-05-23T20:05:39.493Z,24.36
2019-05-23T20:08:06.217Z,24.35
2019-05-23T20:10:32.219Z,24.36
2019-05-23T20:12:58.610Z,24.33
2019-05-23T20:15:25.254Z,24.33
2019-05-23T20:17:52.290Z,24.34
2019-05-23T20:20:17.776Z,24.30
2019-05-23T20:22:44.150Z,24.31
2019-05-23T20:27:36.938Z,24.28
2019-05-23T20:30:03.259Z,24.28
2019-05-23T20:32:29.631Z,24.26
2019-05-23T20:34:56.031Z,24.26
2019-05-23T20:37:22.363Z,24.28
2019-05-23T20:39:48.697Z,24.25
2019-05-23T20:42:15.029Z,24.21
2019-05-23T20:44:41.475Z,24.24
2019-05-23T20:47:07.759Z,24.24
2019-05-23T20:49:34.157Z,24.23
2019-05-23T20:52:00.505Z,24.19
2019-05-23T20:54:26.878Z,24.16
2019-05-23T20:56:53.231Z,24.15
2019-05-23T20:59:19.699Z,24.10
2019-05-23T21:01:45.990Z,24.04
2019-05-23T21:04:12.376Z,24.02
2019-05-23T21:06:38.709Z,23.98
2019-05-23T21:09:05.083Z,23.94
2019-05-23T21:11:31.473Z,23.90
2019-05-23T21:13:57.864Z,23.87
2019-05-23T21:16:24.236Z,23.81
2019-05-23T21:18:50.655Z,23.83
2019-05-23T21:21:16.975Z,23.72
2019-05-23T21:23:43.354Z,23.70
2019-05-23T21:26:09.768Z,23.71
2019-05-23T21:28:36.197Z,23.64
2019-05-23T21:31:02.597Z,23.62
2019-05-23T21:33:28.977Z,23.60
2019-05-23T21:35:55.323Z,23.56
2019-05-23T21:38:24.314Z,23.57
2019-05-23T21:40:50.613Z,23.56
2019-05-23T21:43:16.954Z,23.54
2019-05-23T21:45:43.300Z,23.47
2019-05-23T21:48:09.691Z,23.45
2019-05-23T21:50:36.039Z,23.45
2019-05-23T21:53:02.369Z,23.43
2019-05-23T21:55:28.718Z,23.37
2019-05-23T21:57:55.075Z,23.40
2019-05-23T22:00:21.445Z,23.40
2019-05-23T22:02:47.827Z,23.35
2019-05-23T22:05:14.191Z,23.30
2019-05-23T22:07:40.518Z,23.29
2019-05-23T22:10:22.834Z,23.30
2019-05-23T22:13:03.568Z,23.29
2019-05-23T22:15:14.785Z,23.22
2019-05-23T22:17:41.102Z,23.25
2019-05-23T22:20:07.586Z,23.26
2019-05-23T22:22:34.136Z,23.25
2019-05-23T22:25:00.477Z,23.15
2019-05-23T22:27:26.904Z,23.17
2019-05-23T22:29:53.445Z,23.22
2019-05-23T22:32:19.814Z,23.14
2019-05-23T22:34:46.206Z,23.14
2019-05-23T22:37:12.515Z,23.09
2019-05-23T22:39:40.667Z,23.09
2019-05-23T22:42:05.460Z,23.07
2019-05-23T22:44:31.934Z,23.09
2019-05-23T22:47:00.767Z,23.05
2019-05-23T22:49:27.339Z,23.06
2019-05-23T22:51:53.704Z,23.03
2019-05-23T22:54:20.217Z,23.03
2019-05-23T22:56:46.616Z,22.98
2019-05-23T22:59:12.974Z,23.03
2019-05-23T23:01:39.400Z,23.02
2019-05-23T23:04:05.788Z,22.98
2019-05-23T23:06:32.151Z,22.99
2019-05-23T23:08:58.544Z,22.97
2019-05-23T23:11:24.897Z,22.97
2019-05-23T23:13:51.374Z,22.95
2019-05-23T23:16:17.648Z,22.91
2019-05-23T23:18:44.104Z,22.91
2019-05-23T23:21:10.559Z,22.88
2019-05-23T23:23:36.895Z,22.92
2019-05-23T23:26:03.267Z,22.87
2019-05-23T23:28:29.712Z,22.85
2019-05-23T23:30:56.287Z,22.85
2019-05-23T23:33:22.658Z,22.87
2019-05-23T23:35:48.992Z,22.85
2019-05-23T23:38:15.637Z,22.84
2019-05-23T23:40:41.855Z,22.80
2019-05-23T23:43:08.365Z,22.78
2019-05-23T23:45:34.655Z,22.80
2019-05-23T23:48:00.998Z,22.77
2019-05-23T23:50:27.425Z,22.71
2019-05-23T23:52:53.813Z,22.70
2019-05-23T23:55:20.218Z,22.77
2019-05-23T23:57:46.552Z,22.72
